Last 24 Hours

Pinyon

10 Minute Data | America/Los_Angeles
as of 9/4/26 3:23 AM PDT
Date & Time Temp (°F) Dew Pt (°F) RH (%) Wind Spd (mph) Wind Dir (°) Wind Gust (mph) Wind Gst Dir (°) Daily Max Temp (°F) Daily Min Temp (°F)
9/4/26 - 0320 64.4 30.6 28 17.6 NNW | 330 25.1 NNW | 334 64.8 63.4
9/4/26 - 0310 64.5 30.4 28 18.3 NNW | 331 26.4 NNW | 343 64.8 63.4
9/4/26 - 0300 64.7 30.9 28 19.5 NNW | 332 27.5 NNW | 342 64.8 63.4
9/4/26 - 0250 64.5 32.3 30 18.3 NNW | 333 27.6 NW | 313 64.7 63.4
9/4/26 - 0240 64.5 33.5 31 17.9 NNW | 329 27.4 NNW | 338 64.7 63.4
9/4/26 - 0230 64.4 34.6 33 18.6 NNW | 332 28.2 NNW | 339 64.6 63.4
9/4/26 - 0220 64.3 35.5 34 17.6 NNW | 331 24.9 SE | 134 64.5 63.4
9/4/26 - 0210 64.3 36.4 35 17.8 NNW | 331 24.8 N | 352 64.5 63.4
9/4/26 - 0200 64.2 38.4 39 19.0 NNW | 333 26.1 NNW | 343 64.4 63.4
9/4/26 - 0150 63.9 40.0 41 18.2 NNW | 336 27.0 NNW | 330 64.4 63.4
9/4/26 - 0140 63.9 40.4 42 18.6 NNW | 337 25.2 NNW | 341 64.4 63.4
9/4/26 - 0130 63.6 40.5 43 17.4 NNW | 340 24.9 NNW | 330 64.4 63.4
9/4/26 - 0120 63.6 41.1 44 16.2 NNW | 342 22.3 NNW | 345 64.4 63.4
9/4/26 - 0110 64.2 41.5 43 19.2 NNW | 341 28.1 N | 354 64.4 63.9
9/4/26 - 0100 64.2 41.9 44 18.6 NNW | 343 27.0 NNW | 346 79.9 62.5
9/4/26 - 0050 64.1 41.5 44 18.1 NNW | 343 28.9 N | 354 79.9 62.5
9/4/26 - 0040 63.1 41.7 45 16.6 NNW | 346 23.1 NNW | 344 79.9 62.5
9/4/26 - 0030 62.6 43.0 49 16.9 N | 351 23.0 N | 354 79.9 62.5
9/4/26 - 0020 62.6 43.1 49 16.7 NNW | 348 22.0 N | 354 79.9 62.5
9/4/26 - 0010 62.9 42.3 47 14.7 NNW | 342 21.2 NNW | 340 79.9 62.7
9/4/26 - 0000 63.0 42.9 48 14.6 NNW | 338 19.7 NNW | 331 79.9 62.8
9/3/26 - 2350 63.5 43.2 47 15.8 NNW | 334 21.7 NNW | 334 79.9 63.0
9/3/26 - 2340 64.1 42.7 46 16.1 NNW | 337 24.2 NNW | 335 79.9 63.0
9/3/26 - 2330 64.6 42.2 44 14.1 NNW | 331 20.2 NNW | 337 79.9 63.0
9/3/26 - 2320 64.5 43.1 46 14.3 NNW | 333 20.6 NW | 318 79.9 63.0
9/3/26 - 2310 65.1 42.7 44 14.3 NNW | 332 21.1 NW | 325 79.9 63.0
9/3/26 - 2300 65.4 42.3 43 13.5 NW | 325 20.0 NNW | 340 79.9 63.0
9/3/26 - 2250 65.3 42.8 44 12.9 NNW | 331 18.8 NNW | 331 79.9 63.0
9/3/26 - 2240 66.1 42.1 42 13.5 NNW | 332 18.8 NNW | 336 79.9 63.0
9/3/26 - 2230 66.8 40.9 39 13.3 NNW | 328 20.0 NNW | 335 79.9 63.0
9/3/26 - 2220 66.9 40.6 38 13.4 NNW | 327 20.0 NW | 325 79.9 63.0
9/3/26 - 2210 66.5 41.2 40 14.3 NNW | 329 20.0 NNW | 329 79.9 63.0
9/3/26 - 2200 66.9 41.2 39 14.0 NNW | 328 19.7 NW | 324 79.9 63.0
9/3/26 - 2150 67.5 40.9 38 14.6 NNW | 332 20.7 NW | 323 79.9 63.0
9/3/26 - 2140 68.4 38.6 34 14.9 NNW | 329 19.9 NNW | 337 79.9 63.0
9/3/26 - 2130 68.7 37.8 32 15.1 NW | 326 21.8 NW | 313 79.9 63.0
9/3/26 - 2120 68.5 38.2 33 16.1 NW | 325 21.9 NW | 323 79.9 63.0
9/3/26 - 2110 68.6 37.4 32 14.0 NNW | 327 22.8 NW | 322 79.9 63.0
9/3/26 - 2100 68.7 37.3 32 13.7 NNW | 328 19.2 NNW | 338 79.9 63.0
9/3/26 - 2050 68.6 37.5 32 13.0 NNW | 328 17.8 NW | 325 79.9 63.0
9/3/26 - 2040 68.7 38.2 33 13.3 NW | 326 19.8 NW | 320 79.9 63.0
9/3/26 - 2030 68.6 38.8 34 14.6 NW | 322 20.8 NNW | 328 79.9 63.0
9/3/26 - 2020 68.2 40.1 36 13.6 NW | 319 21.0 NW | 308 79.9 63.0
9/3/26 - 2010 67.7 42.8 40 15.2 NW | 318 22.9 NW | 320 79.9 63.0
9/3/26 - 2000 67.6 44.0 43 14.7 NW | 316 24.6 NW | 324 79.9 63.0
9/3/26 - 1950 67.8 44.4 43 17.2 NW | 323 24.1 NNW | 336 79.9 63.0
9/3/26 - 1940 68.3 43.9 41 17.0 NW | 326 26.4 NNW | 328 79.9 63.0
9/3/26 - 1930 69.0 42.9 39 17.3 NNW | 333 22.3 NNW | 346 79.9 63.0
9/3/26 - 1920 69.6 41.6 36 16.6 NNW | 334 23.2 NW | 326 79.9 63.0
9/3/26 - 1910 70.2 40.8 34 16.0 NNW | 336 23.8 NNW | 332 79.9 63.0
9/3/26 - 1900 70.8 40.7 34 15.2 NNW | 336 21.3 NNW | 336 79.9 63.0
9/3/26 - 1850 71.6 41.8 34 15.8 NNW | 337 22.3 NNW | 344 79.9 63.0
9/3/26 - 1840 72.1 42.8 35 15.3 NNW | 334 21.0 NW | 325 79.9 63.0
9/3/26 - 1830 72.8 43.0 34 15.0 NNW | 332 21.8 NNW | 344 79.9 63.0
9/3/26 - 1820 73.2 43.2 34 16.5 NNW | 340 24.6 NNW | 339 79.9 63.0
9/3/26 - 1810 74.0 42.7 32 17.3 NNW | 339 23.9 NW | 324 79.9 63.0
9/3/26 - 1800 74.6 42.5 32 16.5 NNW | 339 24.8 NNW | 347 79.9 63.0
9/3/26 - 1750 75.0 42.3 31 17.2 NNW | 332 24.9 NNW | 327 79.9 63.0
9/3/26 - 1740 75.5 41.3 29 17.4 NNW | 332 25.5 NNW | 336 79.9 63.0
9/3/26 - 1730 76.0 40.5 28 16.6 NNW | 336 24.0 N | 352 79.9 63.0
9/3/26 - 1720 76.5 39.5 26 16.9 NNW | 332 24.3 NNW | 329 79.9 63.0
9/3/26 - 1710 76.6 38.4 25 16.7 NNW | 343 23.8 NW | 326 79.9 63.0
9/3/26 - 1700 77.2 37.4 24 16.4 NNW | 338 24.1 NNW | 332 79.9 63.0
9/3/26 - 1650 77.5 36.2 22 16.0 NNW | 335 24.0 NNW | 340 79.9 63.0
9/3/26 - 1640 77.6 36.2 22 16.1 NNW | 335 24.5 NW | 324 79.9 63.0
9/3/26 - 1630 78.0 36.0 22 15.3 NNW | 334 23.0 NNW | 335 79.9 63.0
9/3/26 - 1620 78.1 35.3 21 16.3 NNW | 330 24.4 NW | 324 79.9 63.0
9/3/26 - 1610 78.6 35.1 21 15.5 NNW | 336 25.1 NNW | 339 79.9 63.0
9/3/26 - 1600 78.8 35.0 21 14.8 NNW | 328 24.3 NNW | 331 79.9 63.0
9/3/26 - 1550 78.7 34.4 20 15.6 NNW | 332 26.3 NNW | 346 79.9 63.0
9/3/26 - 1540 78.8 34.1 20 14.4 NNW | 343 23.4 N | 351 79.9 63.0
9/3/26 - 1530 78.4 34.3 20 17.3 NNW | 330 25.9 NNW | 347 79.9 63.0
9/3/26 - 1520 78.8 33.4 19 16.2 NNW | 330 25.9 NNW | 337 79.9 63.0
9/3/26 - 1510 78.6 33.4 19 17.4 NNW | 330 25.4 NW | 322 79.9 63.0
9/3/26 - 1500 78.6 32.7 19 15.9 NNW | 335 26.4 NW | 308 79.9 63.0
9/3/26 - 1450 79.0 32.0 18 16.4 NNW | 341 25.6 NNW | 342 79.9 63.0
9/3/26 - 1440 78.4 31.6 18 15.9 NNW | 338 26.8 N | 351 79.9 63.0
9/3/26 - 1430 77.9 31.6 18 18.6 NNW | 338 27.0 NNW | 328 79.9 63.0
9/3/26 - 1420 78.6 31.7 18 17.6 NNW | 343 26.9 NNW | 348 79.9 63.0
9/3/26 - 1410 79.0 30.8 17 17.0 NNW | 338 27.1 NNW | 346 79.9 63.0
9/3/26 - 1400 78.6 31.1 18 18.1 NNW | 343 28.7 N | 9 79.4 63.0
9/3/26 - 1350 77.9 31.2 18 18.9 NNW | 338 27.8 NNW | 344 79.4 63.0
9/3/26 - 1340 78.2 32.1 19 18.1 NNW | 339 24.3 NNW | 345 79.4 63.0
9/3/26 - 1330 78.4 31.0 18 17.9 NNW | 341 27.2 NNW | 341 79.4 63.0
9/3/26 - 1320 78.0 30.9 18 19.0 NNW | 341 29.2 NNW | 344 79.4 63.0
9/3/26 - 1310 78.3 29.4 17 18.2 NNW | 342 26.4 NNW | 339 79.4 63.0
9/3/26 - 1300 78.6 28.2 16 18.0 NNW | 338 27.0 NNW | 334 79.4 63.0
9/3/26 - 1250 78.8 27.1 15 17.1 NNW | 342 26.5 NNW | 346 79.4 63.0
9/3/26 - 1240 77.6 26.0 15 19.3 NNW | 338 27.3 N | 352 78.5 63.0
9/3/26 - 1230 77.7 25.9 15 19.1 NNW | 343 27.5 NNW | 337 78.5 63.0
9/3/26 - 1220 77.6 25.2 14 19.1 NNW | 337 28.1 NNW | 344 78.5 63.0
9/3/26 - 1210 77.7 25.1 14 18.8 NNW | 339 27.6 NNW | 332 78.5 63.0
9/3/26 - 1200 77.6 24.4 14 19.9 NNW | 341 29.5 NNW | 344 78.5 63.0
9/3/26 - 1150 77.8 24.2 14 18.1 NNW | 347 30.0 N | 354 78.5 63.0
9/3/26 - 1140 77.2 23.9 14 19.0 NNW | 340 27.1 NNW | 336 77.8 63.0
9/3/26 - 1130 77.2 23.9 14 17.0 NNW | 341 27.9 N | 354 77.8 63.0
9/3/26 - 1120 76.9 23.8 14 17.7 NNW | 334 24.8 NNW | 341 77.5 63.0
9/3/26 - 1110 76.4 23.8 14 18.4 NNW | 334 27.2 NW | 325 77.1 63.0
9/3/26 - 1100 76.5 23.6 14 17.3 NNW | 335 25.9 NNW | 338 77.0 63.0
9/3/26 - 1050 75.9 23.1 14 17.3 NNW | 334 24.8 NNW | 339 76.3 63.0
9/3/26 - 1040 75.0 22.8 14 17.2 NNW | 334 23.9 NW | 320 75.3 63.0
9/3/26 - 1030 74.8 22.5 14 18.3 NNW | 335 24.5 NNW | 334 75.2 63.0
9/3/26 - 1020 74.6 21.9 14 17.6 NNW | 336 25.7 NNW | 333 75.0 63.0
9/3/26 - 1010 74.3 22.0 14 17.2 NNW | 334 26.4 NW | 325 74.8 63.0
9/3/26 - 1000 74.0 21.8 14 18.6 NNW | 336 27.3 NW | 325 74.4 63.0
9/3/26 - 0950 73.8 20.6 13 16.9 NNW | 332 24.9 NW | 326 74.4 63.0
9/3/26 - 0940 73.2 19.7 13 19.0 NNW | 336 27.9 NNW | 342 73.6 63.0
9/3/26 - 0930 73.0 18.3 12 18.9 NNW | 333 27.2 NNW | 328 73.6 63.0
9/3/26 - 0920 73.3 17.3 12 16.7 NNW | 334 24.6 NNW | 333 73.6 63.0
9/3/26 - 0910 73.1 15.4 11 17.1 NNW | 335 24.0 NNW | 340 73.4 63.0
9/3/26 - 0900 72.9 13.8 10 15.1 NNW | 335 22.4 NNW | 335 73.3 63.0
9/3/26 - 0850 72.4 12.3 10 16.1 NNW | 337 23.7 NNW | 330 72.7 63.0
9/3/26 - 0840 72.1 10.8 9 16.1 NNW | 335 23.7 NW | 324 72.5 63.0
9/3/26 - 0830 71.6 8.7 9 17.2 NNW | 334 24.1 N | 350 71.8 63.0
9/3/26 - 0820 71.4 7.2 8 16.7 NNW | 333 24.6 NNW | 334 71.6 63.0
9/3/26 - 0810 71.2 5.8 8 16.0 NNW | 337 22.7 NNW | 331 71.3 63.0
9/3/26 - 0800 70.7 5.5 8 16.6 NNW | 333 23.8 NW | 324 71.1 63.0
9/3/26 - 0750 70.2 5.7 8 18.5 NNW | 333 26.1 NNW | 332 70.5 63.0
9/3/26 - 0740 69.7 5.9 8 17.4 NNW | 332 24.8 NNW | 331 69.9 63.0
9/3/26 - 0730 69.2 7.1 9 17.2 NNW | 328 25.0 NNW | 329 69.4 63.0
9/3/26 - 0720 68.9 6.8 9 19.8 NNW | 332 26.5 NNW | 331 69.2 63.0
9/3/26 - 0710 68.3 7.4 9 20.3 NNW | 331 27.0 NW | 326 68.5 63.0
9/3/26 - 0700 67.0 12.5 12 19.9 NNW | 328 26.9 NW | 321 67.6 63.0
9/3/26 - 0650 66.4 15.8 14 20.1 NNW | 331 27.0 NNW | 331 66.6 63.0
9/3/26 - 0640 66.1 17.4 15 19.7 NNW | 331 27.0 NNW | 327 66.2 63.0
9/3/26 - 0630 65.7 18.3 16 18.7 NNW | 333 25.0 NNW | 333 65.8 63.0
9/3/26 - 0620 65.4 18.6 16 18.9 NNW | 334 25.9 NNW | 336 65.8 63.0
9/3/26 - 0610 65.3 18.4 16 17.6 NNW | 337 23.1 NNW | 338 65.6 63.0
9/3/26 - 0600 65.5 18.4 16 18.1 NNW | 337 23.9 NNW | 341 65.6 63.0
9/3/26 - 0550 65.2 18.4 16 17.5 NNW | 340 26.0 NNW | 341 65.4 63.0
9/3/26 - 0540 64.9 18.6 17 19.0 NNW | 339 28.0 NNW | 330 65.1 63.0
9/3/26 - 0530 64.8 18.8 17 18.4 NNW | 338 25.7 NNW | 345 64.9 63.0
9/3/26 - 0520 64.9 18.8 17 20.2 NNW | 337 27.0 NNW | 340 64.9 63.0
9/3/26 - 0510 64.8 18.6 17 19.2 NNW | 337 25.8 NNW | 336 64.9 63.0
9/3/26 - 0500 64.9 18.1 16 20.2 NNW | 336 27.8 NNW | 336 64.9 63.0
9/3/26 - 0450 64.8 17.1 16 20.1 NNW | 334 27.7 NNW | 336 64.9 63.0
9/3/26 - 0440 64.7 17.2 16 20.4 NNW | 334 28.4 NNW | 336 64.9 63.0
9/3/26 - 0430 64.7 16.8 15 19.7 NNW | 334 26.6 NNW | 345 64.9 63.0
9/3/26 - 0420 64.8 15.6 15 20.8 NNW | 334 29.2 NW | 312 64.9 63.0
9/3/26 - 0410 64.5 15.0 14 20.5 NNW | 330 27.8 NNW | 331 64.7 63.0
9/3/26 - 0400 64.3 13.1 13 21.4 NNW | 327 32.0 NW | 319 64.6 63.0
9/3/26 - 0350 64.2 11.3 12 20.1 NNW | 327 29.2 NNW | 337 64.6 63.0
9/3/26 - 0340 64.1 9.9 12 20.7 NW | 326 30.3 NW | 325 64.6 63.0
9/3/26 - 0330 64.1 7.2 10 19.0 NNW | 327 29.8 NNW | 333 64.6 63.0
9/3/26 - 0320 64.3 6.1 10 20.6 NW | 326 27.9 NW | 321 64.6 63.0
Max 79.0 44.4 49 21.4 - 32.0 - 79.9 63.9
Avg 70.5 29.6 25 17.2 - 24.9 - - -
Min 62.6 5.5 8 12.9 - 17.8 - 64.4 62.5